Time;durP1;ratioP1;P1;durP2;ratioP2;P2;SDS_P1;SDS_P2;PMS_P1;PMS_P2;Temp;Humidity;BMP_temperature;BMP_pressure;BME280_temperature;BME280_humidity;BME280_pressure;Samples;Min_cycle;Max_cycle;Signal;HPM_P1;HPM_P2
2021/07/27 00:02:17;;;;;;;7.60;6.80;;;;;;;18.96;63.76;93948.50;5091873;28;20040;-62
2021/07/27 00:04:42;;;;;;;8.30;6.68;;;;;;;19.08;63.64;93952.16;5092092;28;20016;-64
2021/07/27 00:07:08;;;;;;;7.55;6.38;;;;;;;19.08;63.50;93957.78;5091852;28;20073;-64
2021/07/27 00:09:33;;;;;;;10.95;6.75;;;;;;;19.04;63.37;93951.84;5092286;28;20024;-64
2021/07/27 00:11:59;;;;;;;7.30;6.13;;;;;;;19.03;63.42;93959.53;5110932;28;20417;-64
2021/07/27 00:14:24;;;;;;;7.63;6.90;;;;;;;18.93;64.29;93956.00;5111347;28;20031;-63
2021/07/27 00:16:49;;;;;;;7.50;6.80;;;;;;;18.84;64.37;93953.97;5112462;28;20512;-58
2021/07/27 00:19:15;;;;;;;9.23;6.72;;;;;;;18.80;64.67;93948.06;5112377;28;20081;-62
2021/07/27 00:21:40;;;;;;;10.70;7.07;;;;;;;18.70;65.55;93950.91;5112344;28;20020;-61
2021/07/27 00:24:06;;;;;;;7.40;6.78;;;;;;;18.52;65.07;93932.06;5112421;28;20565;-61
2021/07/27 00:26:31;;;;;;;7.97;6.93;;;;;;;18.57;65.03;93934.56;5093552;28;20016;-62
2021/07/27 00:28:57;;;;;;;8.30;6.88;;;;;;;18.64;65.20;93950.47;5090478;28;20024;-66
2021/07/27 00:31:22;;;;;;;7.43;6.60;;;;;;;18.58;64.99;93957.69;5091410;28;20027;-64
2021/07/27 00:33:48;;;;;;;7.82;7.13;;;;;;;18.54;64.62;93958.13;5091649;28;20035;-64
2021/07/27 00:36:14;;;;;;;10.20;6.53;;;;;;;18.34;64.62;93953.09;5091702;28;20016;-64
2021/07/27 00:38:39;;;;;;;10.73;7.82;;;;;;;18.49;64.58;93969.59;5091675;28;20066;-64
2021/07/27 00:41:05;;;;;;;9.57;7.28;;;;;;;18.45;64.87;93970.03;5102168;28;20042;-64
2021/07/27 00:43:30;;;;;;;9.05;7.55;;;;;;;18.24;65.22;93953.06;5111911;28;20031;-64
2021/07/27 00:45:56;;;;;;;8.00;6.90;;;;;;;18.22;65.98;93966.16;5111810;28;20573;-64
2021/07/27 00:48:21;;;;;;;10.68;7.25;;;;;;;18.23;65.76;93964.84;5107255;28;20425;-65
2021/07/27 00:50:47;;;;;;;12.20;7.82;;;;;;;18.20;65.70;93966.75;5084679;28;20024;-65
2021/07/27 00:53:14;;;;;;;8.90;6.45;;;;;;;18.28;65.63;93963.84;5074033;28;20154;-65
2021/07/27 00:55:40;;;;;;;28.40;7.53;;;;;;;18.26;65.93;93963.69;5091238;28;20031;-65
2021/07/27 00:58:05;;;;;;;9.98;7.32;;;;;;;18.26;65.28;93963.69;5091061;28;20552;-65
2021/07/27 01:00:31;;;;;;;10.50;7.65;;;;;;;18.28;65.39;93956.16;5090931;28;20162;-65
2021/07/27 01:02:56;;;;;;;8.77;7.38;;;;;;;18.22;65.67;93947.34;5090188;28;20135;-60
2021/07/27 01:05:24;;;;;;;7.75;6.90;;;;;;;18.25;65.96;93951.03;5077382;28;20082;-60
2021/07/27 01:07:50;;;;;;;10.05;7.45;;;;;;;18.22;65.95;93949.38;5102161;28;20062;-61
2021/07/27 01:10:16;;;;;;;8.77;7.22;;;;;;;18.12;65.95;93938.97;5111189;28;20742;-61
2021/07/27 01:12:43;;;;;;;8.40;7.50;;;;;;;18.18;65.66;93949.84;5076260;28;20032;-59
2021/07/27 01:15:09;;;;;;;8.07;7.28;;;;;;;18.13;65.59;93959.25;5069914;28;20056;-59
2021/07/27 01:17:35;;;;;;;7.20;6.47;;;;;;;18.14;65.33;93957.94;5071406;28;20040;-59
2021/07/27 01:20:11;;;;;;;7.90;6.90;;;;;;;18.11;65.80;93954.25;5070375;28;20040;-61
2021/07/27 01:39:22;;;;;;;8.02;7.28;;;;;;;17.63;66.39;93966.63;5070398;28;20090;-62
2021/07/27 01:44:44;;;;;;;8.23;7.32;;;;;;;17.68;65.98;93969.13;5110549;28;20522;-66
2021/07/27 01:47:14;;;;;;;7.50;6.80;;;;;;;17.69;66.51;93961.50;5091552;28;20024;-60
2021/07/27 01:49:41;;;;;;;8.00;6.80;;;;;;;17.56;66.81;93968.22;5094318;28;20613;-61
2021/07/27 01:52:10;;;;;;;8.43;7.13;;;;;;;17.64;66.20;93970.88;5090376;28;20051;-60
2021/07/27 01:54:41;;;;;;;9.13;7.15;;;;;;;17.60;66.50;93971.31;5090471;28;20062;-62
2021/07/27 01:57:10;;;;;;;8.30;7.47;;;;;;;17.57;66.31;93969.69;5089930;28;20136;-67
2021/07/27 01:59:37;;;;;;;8.57;6.70;;;;;;;17.42;66.77;93962.25;5090205;28;20024;-61
2021/07/27 02:02:03;;;;;;;8.57;6.85;;;;;;;17.28;66.74;93944.41;5089910;28;20052;-60
2021/07/27 02:04:28;;;;;;;9.40;7.72;;;;;;;17.48;66.63;93961.97;5109138;28;20026;-61
2021/07/27 02:06:54;;;;;;;8.57;7.65;;;;;;;17.43;66.65;93963.00;5110700;28;20019;-62
2021/07/27 02:09:19;;;;;;;9.77;7.65;;;;;;;17.44;67.24;93959.63;5110609;28;20137;-62
2021/07/27 02:11:46;;;;;;;8.73;7.80;;;;;;;17.39;66.96;93962.66;5110418;28;20484;-62
2021/07/27 02:14:14;;;;;;;8.77;7.60;;;;;;;17.35;67.24;93963.09;5110556;28;20023;-62
2021/07/27 02:16:40;;;;;;;7.85;7.03;;;;;;;17.35;67.15;93959.56;5110710;28;20390;-62
2021/07/27 02:19:05;;;;;;;8.00;7.07;;;;;;;17.35;67.17;93962.38;5110299;28;20030;-60
2021/07/27 02:21:31;;;;;;;10.63;6.78;;;;;;;17.33;66.44;93959.41;5110209;28;20027;-59
2021/07/27 02:24:00;;;;;;;8.23;7.43;;;;;;;17.27;66.23;93956.16;5110624;28;20107;-62
2021/07/27 02:26:26;;;;;;;8.05;7.25;;;;;;;17.15;66.56;93952.44;5104400;28;20016;-59
2021/07/27 02:28:51;;;;;;;8.02;7.22;;;;;;;17.12;66.36;93953.59;5071814;28;20461;-59
2021/07/27 02:31:25;;;;;;;7.93;7.13;;;;;;;17.02;66.97;93956.31;5090173;28;20020;-58
2021/07/27 02:33:51;;;;;;;10.48;7.05;;;;;;;17.11;66.79;93954.91;5089732;28;20050;-58
2021/07/27 02:36:16;;;;;;;8.35;7.35;;;;;;;17.12;66.98;93959.19;5090178;28;20039;-57
2021/07/27 02:38:42;;;;;;;8.75;6.45;;;;;;;16.97;67.10;93968.50;5090044;28;20409;-58
2021/07/27 02:41:07;;;;;;;8.20;7.03;;;;;;;16.86;67.41;93963.44;5102215;28;20020;-57
2021/07/27 02:43:32;;;;;;;7.47;6.72;;;;;;;16.83;67.09;93964.59;5110061;28;20027;-57
2021/07/27 02:45:58;;;;;;;8.15;7.07;;;;;;;16.84;66.87;93962.53;5110073;28;20028;-57
2021/07/27 02:48:23;;;;;;;7.78;6.97;;;;;;;16.85;67.04;93959.16;5105331;28;20023;-58
2021/07/27 02:50:59;;;;;;;8.27;7.47;;;;;;;16.91;66.82;93972.88;5089953;28;20020;-57
2021/07/27 02:53:29;;;;;;;7.78;7.07;;;;;;;16.94;66.60;93963.31;5089740;28;20168;-57
2021/07/27 02:55:55;;;;;;;8.60;7.80;;;;;;;16.88;66.84;93962.84;5089947;28;20028;-57
2021/07/27 02:58:20;;;;;;;8.82;6.90;;;;;;;16.77;67.26;93964.13;5089908;28;20456;-59
2021/07/27 03:00:45;;;;;;;8.23;6.78;;;;;;;16.78;67.21;93971.19;5108732;28;20446;-61
2021/07/27 03:03:11;;;;;;;7.70;6.90;;;;;;;16.67;67.78;93966.81;5109157;28;20125;-61
2021/07/27 03:05:36;;;;;;;7.07;6.38;;;;;;;16.66;66.93;93965.38;5109802;28;20428;-59
2021/07/27 03:08:10;;;;;;;10.68;6.95;;;;;;;16.65;66.96;93969.44;5110143;28;20025;-62
2021/07/27 03:10:36;;;;;;;7.97;7.18;;;;;;;16.63;67.15;93976.94;5113367;28;20028;-58
2021/07/27 03:13:01;;;;;;;8.43;7.30;;;;;;;16.54;67.24;93975.56;5113792;28;20054;-59
2021/07/27 03:15:29;;;;;;;12.77;7.47;;;;;;;16.58;67.41;93981.44;5112357;28;20094;-58
2021/07/27 03:17:56;;;;;;;8.05;7.07;;;;;;;16.56;67.80;93978.50;5093168;28;20031;-64
2021/07/27 03:20:21;;;;;;;11.30;7.72;;;;;;;16.46;68.02;93979.69;5092895;28;20039;-60
2021/07/27 03:22:50;;;;;;;7.85;7.05;;;;;;;16.43;67.85;93973.25;5093255;28;20044;-64
2021/07/27 03:25:17;;;;;;;14.68;7.30;;;;;;;16.43;68.06;93970.44;5092849;28;20397;-68
2021/07/27 03:27:44;;;;;;;32.17;8.38;;;;;;;16.46;67.95;93974.84;5082399;28;20032;-67
2021/07/27 03:30:13;;;;;;;10.18;7.38;;;;;;;16.53;67.84;93971.28;5071279;28;20099;-67
2021/07/27 03:32:39;;;;;;;9.15;6.53;;;;;;;16.58;67.20;93970.31;5070861;28;20105;-67
2021/07/27 03:35:05;;;;;;;9.82;7.18;;;;;;;16.60;66.79;93973.25;5070972;28;20478;-68
2021/07/27 03:37:34;;;;;;;10.18;6.93;;;;;;;16.48;66.81;93965.94;5070690;28;20078;-67
2021/07/27 03:40:01;;;;;;;9.15;7.40;;;;;;;16.60;67.53;93983.66;5076637;28;20022;-67
2021/07/27 03:42:26;;;;;;;21.83;7.82;;;;;;;16.41;67.91;93978.66;5111545;28;20027;-67
2021/07/27 03:44:56;;;;;;;119.50;13.30;;;;;;;16.44;68.04;93971.91;5112295;28;20668;-67
2021/07/27 03:47:21;;;;;;;11.35;7.22;;;;;;;16.53;67.99;93976.84;5113024;28;20055;-66
2021/07/27 03:49:46;;;;;;;10.82;6.57;;;;;;;16.61;67.56;93980.28;5096712;28;20054;-62
2021/07/27 03:52:12;;;;;;;6.85;6.22;;;;;;;16.63;66.82;93979.72;5092308;28;20036;-63
2021/07/27 03:54:37;;;;;;;7.80;6.72;;;;;;;16.66;67.14;93982.09;5092272;28;20020;-62
2021/07/27 03:57:04;;;;;;;10.10;7.10;;;;;;;16.66;67.47;93981.34;5111872;28;20024;-64
2021/07/27 03:59:33;;;;;;;8.55;6.97;;;;;;;16.65;67.33;93994.53;5112601;28;20398;-64
2021/07/27 04:01:59;;;;;;;13.40;7.50;;;;;;;16.67;67.30;93996.78;5112521;28;20043;-64
2021/07/27 04:04:26;;;;;;;9.05;6.93;;;;;;;16.57;67.40;93996.69;5112514;28;20026;-65
2021/07/27 04:06:51;;;;;;;8.05;7.13;;;;;;;16.50;68.30;94000.28;5112783;28;20506;-64
2021/07/27 04:09:17;;;;;;;8.82;7.93;;;;;;;16.43;69.01;94001.13;5112428;28;20058;-64
2021/07/27 04:11:42;;;;;;;7.82;6.90;;;;;;;16.62;68.33;94003.34;5112669;28;20480;-64
2021/07/27 04:14:10;;;;;;;8.90;6.68;;;;;;;16.57;68.09;93973.66;5112579;28;20058;-64
2021/07/27 04:16:39;;;;;;;15.45;6.57;;;;;;;16.77;68.01;93996.81;5112586;28;20050;-64
2021/07/27 04:19:05;;;;;;;8.75;6.78;;;;;;;16.79;68.09;93994.19;5112514;28;20099;-64
2021/07/27 04:21:30;;;;;;;8.45;7.00;;;;;;;16.93;67.82;94004.44;5111780;28;20503;-64
2021/07/27 04:23:59;;;;;;;10.82;7.45;;;;;;;16.99;67.09;94004.94;5112449;28;20019;-64
2021/07/27 04:26:25;;;;;;;;;;;;;;;17.02;66.37;94003.75;5112610;28;20028;-64
2021/07/27 04:28:50;;;;;;;11.82;8.15;;;;;;;17.00;67.32;94000.09;5112330;28;19918;-64
2021/07/27 04:31:16;;;;;;;10.68;8.02;;;;;;;16.88;67.13;93983.13;5111922;28;20481;-64
2021/07/27 04:33:42;;;;;;;8.90;7.35;;;;;;;17.02;67.06;93997.47;5111775;28;20027;-64
2021/07/27 04:36:08;;;;;;;8.95;8.05;;;;;;;17.02;67.99;94000.25;5111921;28;20024;-66
2021/07/27 04:38:34;;;;;;;9.80;7.93;;;;;;;17.09;68.37;94004.97;5111808;28;20574;-65
2021/07/27 04:40:59;;;;;;;13.18;7.60;;;;;;;17.13;68.58;93999.72;5111499;28;20020;-65
2021/07/27 04:43:25;;;;;;;8.68;7.78;;;;;;;17.16;68.73;93990.94;5093372;28;20041;-65
2021/07/27 04:45:50;;;;;;;9.07;7.90;;;;;;;17.23;68.30;94003.31;5111642;28;20086;-65
2021/07/27 04:48:15;;;;;;;8.50;7.28;;;;;;;17.26;68.09;93999.38;5107998;28;20038;-65
2021/07/27 04:50:44;;;;;;;16.02;7.85;;;;;;;17.34;68.67;93994.41;5091211;28;20035;-65
2021/07/27 04:53:10;;;;;;;10.65;7.28;;;;;;;17.42;68.47;93981.81;5109547;28;20027;-65
2021/07/27 04:55:36;;;;;;;20.13;8.00;;;;;;;17.50;68.47;93986.53;5111702;28;20042;-60
2021/07/27 04:58:02;;;;;;;11.00;7.35;;;;;;;17.56;68.39;93992.63;5111248;28;20507;-61
2021/07/27 05:00:28;;;;;;;55.88;9.60;;;;;;;17.71;68.45;93990.34;5103728;28;20024;-59
2021/07/27 05:02:53;;;;;;;10.18;7.68;;;;;;;17.79;67.82;93996.53;5090785;28;20436;-66
2021/07/27 05:05:19;;;;;;;16.13;8.38;;;;;;;17.80;67.07;93992.41;5091213;28;20039;-66
2021/07/27 05:07:45;;;;;;;12.88;8.00;;;;;;;17.82;67.07;93994.63;5090924;28;20074;-67
2021/07/27 05:10:11;;;;;;;12.60;8.07;;;;;;;17.88;66.15;93997.88;5090869;28;20485;-60
2021/07/27 05:12:37;;;;;;;12.23;7.82;;;;;;;17.94;66.39;93987.88;5090843;28;20035;-60
2021/07/27 05:15:04;;;;;;;9.50;7.80;;;;;;;18.04;66.81;93994.22;5090977;28;20028;-60
2021/07/27 05:17:29;;;;;;;9.02;8.13;;;;;;;18.14;67.36;93992.22;5091011;28;20023;-58
2021/07/27 05:19:54;;;;;;;8.52;7.60;;;;;;;18.25;66.95;93988.09;5090992;28;20481;-59
2021/07/27 05:22:21;;;;;;;9.32;7.93;;;;;;;18.30;67.29;93991.94;5090968;28;20090;-60
2021/07/27 05:24:47;;;;;;;10.70;8.35;;;;;;;18.36;67.69;93993.13;5090955;28;20058;-59
2021/07/27 05:27:12;;;;;;;11.07;7.22;;;;;;;18.43;67.40;93997.81;5090692;28;20036;-59
2021/07/27 05:29:38;;;;;;;10.88;6.68;;;;;;;18.55;65.91;93990.34;5087850;28;20488;-57
2021/07/27 05:32:04;;;;;;;7.75;6.90;;;;;;;18.46;65.23;93982.69;5087291;28;20058;-58
2021/07/27 05:34:29;;;;;;;8.48;7.68;;;;;;;18.73;66.25;94005.66;5088401;28;20032;-58
2021/07/27 05:36:55;;;;;;;8.20;7.32;;;;;;;18.82;65.84;93995.78;5088458;28;20050;-57
2021/07/27 05:39:20;;;;;;;7.35;6.72;;;;;;;18.92;65.17;93993.72;5088245;28;20032;-57
2021/07/27 05:41:45;;;;;;;9.20;5.95;;;;;;;19.00;64.50;93993.56;5105651;28;20023;-56
2021/07/27 05:44:11;;;;;;;23.42;6.95;;;;;;;19.09;64.67;93996.34;5108489;28;20551;-58
2021/07/27 05:46:36;;;;;;;7.20;6.50;;;;;;;19.16;63.31;94001.06;5108879;28;20038;-58
2021/07/27 05:49:04;;;;;;;24.50;7.40;;;;;;;19.26;63.53;93998.97;5098846;28;20074;-56
2021/07/27 05:51:30;;;;;;;15.43;7.47;;;;;;;19.39;63.10;94004.13;5088068;28;20028;-57
2021/07/27 05:53:55;;;;;;;10.15;7.03;;;;;;;19.50;62.08;94000.69;5087654;28;20040;-56
2021/07/27 05:56:21;;;;;;;12.98;7.55;;;;;;;19.59;62.33;94008.34;5087970;28;20035;-57
2021/07/27 05:58:47;;;;;;;119.13;13.57;;;;;;;19.63;62.71;94000.22;5088058;28;20028;-57
2021/07/27 06:01:12;;;;;;;19.50;7.03;;;;;;;19.73;62.25;94005.06;5086581;28;20590;-57
2021/07/27 06:03:38;;;;;;;11.52;7.40;;;;;;;19.82;62.35;94001.44;5087668;28;20043;-57
2021/07/27 06:06:03;;;;;;;10.73;6.10;;;;;;;19.91;62.40;93992.25;5087816;28;20024;-57
2021/07/27 06:08:29;;;;;;;11.10;5.93;;;;;;;20.03;61.92;93993.09;5088171;28;20024;-57
2021/07/27 06:10:54;;;;;;;27.65;7.25;;;;;;;20.14;61.88;93990.38;5088252;28;20409;-57
2021/07/27 06:13:19;;;;;;;49.97;8.65;;;;;;;20.27;61.25;94001.09;5088387;28;20023;-58
2021/07/27 06:15:45;;;;;;;18.00;6.13;;;;;;;20.40;61.21;94002.63;5087982;28;20508;-58
2021/07/27 06:18:10;;;;;;;21.70;5.85;;;;;;;20.51;61.42;94001.97;5087982;28;20081;-58
2021/07/27 06:20:36;;;;;;;9.98;6.07;;;;;;;20.81;59.98;94003.94;5087860;28;20032;-58
2021/07/27 06:23:01;;;;;;;13.93;5.57;;;;;;;20.76;60.28;93971.38;5087504;28;20494;-58
2021/07/27 06:25:27;;;;;;;6.05;4.95;;;;;;;21.10;59.14;94004.47;5087756;28;20028;-58
2021/07/27 06:27:52;;;;;;;5.25;4.47;;;;;;;21.22;56.61;94003.78;5084156;28;20642;-58
2021/07/27 06:30:17;;;;;;;9.48;4.18;;;;;;;21.43;55.84;93998.09;5087330;28;20019;-58
2021/07/27 06:32:43;;;;;;;5.53;4.03;;;;;;;21.55;53.96;93991.13;5087685;28;20111;-58
2021/07/27 06:35:09;;;;;;;5.68;4.50;;;;;;;21.64;55.12;93992.38;5087898;28;20047;-58
2021/07/27 06:37:34;;;;;;;7.32;4.78;;;;;;;21.77;55.84;93997.41;5088012;28;20024;-58
2021/07/27 06:40:00;;;;;;;6.53;4.00;;;;;;;21.80;54.79;93979.31;5090787;28;20025;-58
2021/07/27 06:42:25;;;;;;;6.55;4.50;;;;;;;21.96;56.64;93993.66;5108198;28;20113;-58
2021/07/27 06:44:51;;;;;;;151.15;12.25;;;;;;;22.10;55.22;93986.06;5111895;28;20044;-58
2021/07/27 06:47:16;;;;;;;5.88;4.28;;;;;;;22.21;53.98;93983.25;5111100;28;20484;-58
2021/07/27 06:49:42;;;;;;;4.63;3.83;;;;;;;22.28;52.69;93979.44;5075523;28;20505;-58
2021/07/27 06:52:07;;;;;;;7.07;4.28;;;;;;;22.48;53.63;93985.53;5071093;28;20020;-58
2021/07/27 06:54:33;;;;;;;6.53;3.90;;;;;;;22.50;52.60;93975.09;5070877;28;20040;-58
2021/07/27 06:56:59;;;;;;;7.75;4.45;;;;;;;22.63;52.49;93973.03;5071348;28;20162;-59
2021/07/27 06:59:24;;;;;;;7.68;4.03;;;;;;;22.82;52.54;93976.28;5070499;28;20103;-58
2021/07/27 07:01:51;;;;;;;4.15;3.63;;;;;;;23.05;45.76;93959.28;5070715;28;20048;-58
2021/07/27 07:04:16;;;;;;;5.40;3.60;;;;;;;23.33;43.91;93962.97;5071156;28;20036;-59
2021/07/27 07:06:42;;;;;;;4.80;3.53;;;;;;;23.48;46.89;93961.63;5071113;28;20035;-59
2021/07/27 07:09:07;;;;;;;3.85;3.42;;;;;;;23.59;45.12;93963.66;5070856;28;20032;-59
2021/07/27 07:11:33;;;;;;;6.28;3.45;;;;;;;23.77;43.95;93961.81;5070573;28;20023;-59
2021/07/27 07:13:58;;;;;;;4.07;3.45;;;;;;;23.94;40.59;93959.22;5070419;28;20105;-59
2021/07/27 07:16:24;;;;;;;4.50;3.05;;;;;;;24.13;42.50;93960.22;5070328;28;20024;-60
2021/07/27 07:18:49;;;;;;;9.43;4.32;;;;;;;24.26;42.09;93962.28;5070689;28;20031;-59
2021/07/27 07:21:15;;;;;;;7.25;3.53;;;;;;;24.39;40.80;93964.38;5070204;28;20020;-60
2021/07/27 07:23:41;;;;;;;3.45;3.05;;;;;;;24.53;40.03;93960.19;5070692;28;20453;-59
2021/07/27 07:26:07;;;;;;;3.88;3.08;;;;;;;24.60;42.00;93939.34;5072748;28;20039;-60
2021/07/27 07:28:33;;;;;;;4.50;3.05;;;;;;;24.90;38.72;93959.91;5075345;28;20082;-60
2021/07/27 07:30:59;;;;;;;3.97;3.33;;;;;;;25.10;40.96;93958.06;5076155;28;20354;-60
2021/07/27 07:33:24;;;;;;;5.35;3.60;;;;;;;25.28;40.86;93956.13;5058830;28;20019;-60
2021/07/27 07:35:50;;;;;;;5.05;3.25;;;;;;;25.52;41.26;93959.38;5077575;28;20033;-59
2021/07/27 07:38:15;;;;;;;5.45;3.17;;;;;;;25.74;40.82;93949.09;5077950;28;20031;-59
2021/07/27 07:40:41;;;;;;;3.20;2.90;;;;;;;25.87;39.13;93962.41;5087610;28;20080;-59
2021/07/27 07:43:06;;;;;;;5.32;3.30;;;;;;;26.02;38.00;93950.38;5078673;28;20019;-59
2021/07/27 07:45:32;;;;;;;4.15;3.30;;;;;;;26.24;40.25;93957.03;5075332;28;20401;-60
2021/07/27 07:47:57;;;;;;;7.47;3.60;;;;;;;26.63;38.91;93955.88;5081184;28;20024;-60
2021/07/27 07:50:23;;;;;;;6.63;3.38;;;;;;;26.98;39.87;93953.84;5079395;28;20050;-60
2021/07/27 07:53:01;;;;;;;5.18;3.63;;;;;;;27.35;38.07;93952.47;5079596;28;20035;-59
2021/07/27 07:55:28;;;;;;;5.22;3.05;;;;;;;27.70;36.38;93953.19;5078563;28;20028;-59
2021/07/27 07:57:53;;;;;;;6.90;3.25;;;;;;;27.95;34.00;93960.50;5077910;28;20020;-60
2021/07/27 08:00:19;;;;;;;6.90;4.28;;;;;;;28.38;35.30;93954.31;5078783;28;20024;-59
2021/07/27 08:02:45;;;;;;;5.32;3.10;;;;;;;28.55;33.67;93950.63;5077463;28;20457;-59
2021/07/27 08:05:10;;;;;;;4.65;2.88;;;;;;;28.75;31.06;93953.47;5079616;28;20059;-59
2021/07/27 08:07:36;;;;;;;5.75;3.35;;;;;;;29.11;33.04;93960.38;5073055;28;20044;-60
2021/07/27 08:10:01;;;;;;;5.20;3.25;;;;;;;29.82;31.95;93958.44;5078717;28;20026;-59
2021/07/27 08:12:27;;;;;;;7.78;3.35;;;;;;;29.95;29.31;93954.56;5078616;28;20405;-59
2021/07/27 08:14:52;;;;;;;3.78;3.28;;;;;;;30.31;31.33;93960.63;5078358;28;20028;-59
2021/07/27 08:17:18;;;;;;;4.20;2.80;;;;;;;30.47;29.46;93951.81;5079259;28;20012;-59
2021/07/27 08:19:43;;;;;;;6.40;3.42;;;;;;;30.28;28.99;93949.81;5077926;28;20077;-59
2021/07/27 08:22:08;;;;;;;3.92;3.40;;;;;;;30.50;29.05;93954.03;5078759;28;20027;-58
2021/07/27 08:24:36;;;;;;;6.18;3.70;;;;;;;31.25;28.75;93953.91;5078928;28;20021;-57
2021/07/27 08:27:07;;;;;;;4.68;2.88;;;;;;;31.04;27.77;93954.06;5077161;28;20082;-59
2021/07/27 08:29:33;;;;;;;7.15;3.38;;;;;;;31.90;29.30;93944.75;5077371;28;20031;-60
2021/07/27 08:31:58;;;;;;;4.13;3.20;;;;;;;32.43;27.49;93945.88;5079014;28;20024;-58
2021/07/27 08:34:24;;;;;;;6.00;3.05;;;;;;;32.87;26.20;93949.63;5077789;28;20055;-59
2021/07/27 08:36:49;;;;;;;4.57;3.38;;;;;;;33.65;26.59;93947.44;5081492;28;20412;-62
2021/07/27 08:39:15;;;;;;;6.22;3.80;;;;;;;33.87;24.97;93953.50;5077534;28;20027;-59
2021/07/27 08:41:42;;;;;;;5.57;3.42;;;;;;;34.60;25.33;93957.38;5077521;28;20093;-59
2021/07/27 08:44:17;;;;;;;5.18;3.45;;;;;;;33.57;25.20;93950.88;5078361;28;20762;-59
2021/07/27 08:46:46;;;;;;;6.40;3.58;;;;;;;33.40;25.58;93957.00;5077262;28;20098;-59
2021/07/27 08:49:15;;;;;;;5.22;3.85;;;;;;;34.01;24.67;93948.00;5075393;28;20051;-55
2021/07/27 08:51:42;;;;;;;6.97;4.30;;;;;;;34.89;24.05;93947.69;5079677;28;20013;-59
2021/07/27 08:54:08;;;;;;;4.93;3.50;;;;;;;35.67;23.08;93948.44;5080254;28;20103;-59
2021/07/27 08:56:33;;;;;;;4.57;3.85;;;;;;;36.60;21.08;93945.44;5080763;28;20099;-59
2021/07/27 08:58:59;;;;;;;3.70;3.40;;;;;;;36.54;21.65;93945.41;5078993;28;20481;-57
2021/07/27 09:01:26;;;;;;;6.93;3.33;;;;;;;36.55;22.24;93938.22;5080385;28;20501;-58
2021/07/27 09:03:51;;;;;;;5.22;3.28;;;;;;;37.14;21.20;93942.75;5080512;28;20086;-57
2021/07/27 09:06:21;;;;;;;5.40;3.38;;;;;;;37.85;20.71;93941.38;5078610;28;20016;-58
2021/07/27 09:08:47;;;;;;;13.65;4.25;;;;;;;38.30;20.17;93944.19;5079927;28;20485;-60
2021/07/27 09:11:15;;;;;;;8.00;3.83;;;;;;;38.22;20.84;93938.41;5080370;28;20031;-60
2021/07/27 09:13:41;;;;;;;5.97;4.10;;;;;;;38.78;20.82;93944.03;5078555;28;20728;-59
2021/07/27 09:16:06;;;;;;;6.20;3.42;;;;;;;38.60;20.41;93938.31;5082723;28;20024;-58
2021/07/27 09:18:33;;;;;;;4.55;3.55;;;;;;;38.14;20.98;93950.69;5075245;28;20031;-57
2021/07/27 09:21:00;;;;;;;5.63;3.80;;;;;;;38.31;21.59;93946.38;5072689;28;20025;-58
2021/07/27 09:23:27;;;;;;;7.25;4.38;;;;;;;37.65;20.79;93940.63;5071610;28;20026;-59
2021/07/27 09:25:55;;;;;;;8.77;3.53;;;;;;;36.99;22.13;93941.97;5084779;28;20027;-59
2021/07/27 09:28:22;;;;;;;5.03;3.90;;;;;;;36.91;22.26;93935.47;5088348;28;20470;-59
2021/07/27 09:30:49;;;;;;;5.38;3.50;;;;;;;37.29;22.38;93938.44;5087925;28;20032;-60
2021/07/27 09:33:16;;;;;;;13.82;4.43;;;;;;;37.99;21.74;93929.09;5087541;28;20105;-60
2021/07/27 09:35:43;;;;;;;6.28;3.85;;;;;;;38.68;21.20;93939.03;5088113;28;20111;-59
2021/07/27 09:38:17;;;;;;;7.68;4.28;;;;;;;39.16;20.92;93943.84;5106385;28;20031;-60
2021/07/27 09:40:56;;;;;;;7.35;3.63;;;;;;;39.87;19.64;93946.94;5098960;28;20028;-59
2021/07/27 09:43:24;;;;;;;6.80;4.00;;;;;;;40.29;19.58;93934.28;5088217;28;20024;-60
2021/07/27 09:46:00;;;;;;;4.60;3.38;;;;;;;40.25;18.74;93933.59;5087922;28;20024;-59
2021/07/27 09:48:26;;;;;;;7.40;4.32;;;;;;;40.53;18.87;93939.09;5083094;28;20136;-58
2021/07/27 09:50:52;;;;;;;7.30;3.75;;;;;;;40.08;19.51;93939.56;5068229;28;20107;-60
2021/07/27 09:53:19;;;;;;;4.90;3.70;;;;;;;40.32;18.95;93929.19;5067458;28;20024;-60
2021/07/27 09:55:45;;;;;;;7.53;3.70;;;;;;;40.68;18.87;93934.56;5067473;28;20033;-59
2021/07/27 09:58:11;;;;;;;6.38;4.03;;;;;;;41.28;18.20;93941.81;5067999;28;20101;-59
2021/07/27 10:00:48;;;;;;;8.38;4.20;;;;;;;41.72;17.58;93935.34;5067814;28;20043;-59
2021/07/27 10:03:17;;;;;;;6.40;3.93;;;;;;;41.99;16.89;93945.03;5069037;28;20040;-58
2021/07/27 10:05:47;;;;;;;8.40;3.97;;;;;;;42.17;16.20;93932.41;5057913;28;20413;-59
2021/07/27 10:08:12;;;;;;;4.05;3.63;;;;;;;42.49;16.63;93934.75;5059370;28;20039;-59
2021/07/27 10:10:40;;;;;;;6.20;4.15;;;;;;;42.78;16.59;93926.16;5075208;28;20032;-59
2021/07/27 10:13:13;;;;;;;6.82;3.97;;;;;;;42.96;16.21;93926.53;5078267;28;20068;-57
2021/07/27 10:15:47;;;;;;;6.43;4.25;;;;;;;43.16;16.02;93930.47;5070373;28;20475;-59
2021/07/27 10:18:13;;;;;;;5.18;3.63;;;;;;;43.31;15.80;93922.88;5068962;28;20029;-59
2021/07/27 10:20:39;;;;;;;8.55;3.78;;;;;;;43.67;15.35;93922.03;5071485;28;20032;-59
2021/07/27 10:23:18;;;;;;;5.05;3.85;;;;;;;43.76;15.45;93908.72;5072070;28;20111;-59
2021/07/27 10:25:55;;;;;;;6.28;3.47;;;;;;;43.88;15.57;93920.06;5071704;28;20048;-59
2021/07/27 10:28:24;;;;;;;4.80;4.30;;;;;;;44.10;14.89;93910.78;5071686;28;20424;-59
2021/07/27 10:31:01;;;;;;;8.23;3.78;;;;;;;44.38;15.14;93915.84;5071320;28;20037;-59
2021/07/27 10:33:28;;;;;;;8.03;3.93;;;;;;;44.54;15.08;93919.81;5090826;28;20043;-59
2021/07/27 10:35:54;;;;;;;7.68;3.63;;;;;;;44.48;14.60;93909.06;5111917;28;20445;-59
2021/07/27 10:38:20;;;;;;;9.23;4.22;;;;;;;44.36;13.99;93909.34;5095854;28;20098;-58
2021/07/27 10:40:46;;;;;;;6.05;4.47;;;;;;;44.40;14.61;93918.00;5103105;28;20023;-58
2021/07/27 10:43:25;;;;;;;10.55;4.28;;;;;;;44.51;14.76;93912.66;5114155;28;20055;-59
2021/07/27 10:46:00;;;;;;;8.13;4.22;;;;;;;43.69;14.51;93907.44;5095983;28;20028;-58
2021/07/27 10:48:36;;;;;;;5.85;3.65;;;;;;;43.95;14.91;93900.97;5108941;28;20386;-58
2021/07/27 10:51:02;;;;;;;6.80;4.15;;;;;;;43.64;15.83;93895.19;5093943;28;20537;-59
2021/07/27 10:53:36;;;;;;;27.27;6.05;;;;;;;42.83;16.75;93910.81;5093417;28;20054;-59
2021/07/27 10:56:04;;;;;;;7.68;3.85;;;;;;;41.26;16.84;93904.16;5093779;28;20062;-58
2021/07/27 10:58:31;;;;;;;7.93;4.45;;;;;;;40.49;17.93;93901.53;5093805;28;20409;-58
2021/07/27 11:01:09;;;;;;;10.38;4.28;;;;;;;40.94;17.60;93896.63;5089209;28;20055;-58
2021/07/27 11:03:35;;;;;;;6.10;4.15;;;;;;;41.35;18.07;93900.38;5090551;28;20508;-58
2021/07/27 11:06:22;;;;;;;12.98;5.05;;;;;;;41.33;16.39;93883.03;5091112;28;20126;-59
2021/07/27 11:08:47;;;;;;;19.67;5.33;;;;;;;40.60;18.56;93894.16;5090958;28;20569;-58
2021/07/27 11:11:15;;;;;;;7.68;4.47;;;;;;;41.24;17.47;93889.72;5091265;28;20027;-58
2021/07/27 11:13:52;;;;;;;14.68;4.72;;;;;;;41.58;17.42;93880.47;5091285;28;20448;-59
2021/07/27 11:16:18;;;;;;;8.77;4.37;;;;;;;41.87;16.76;93881.41;5091225;28;20115;-59
2021/07/27 11:18:44;;;;;;;8.93;4.43;;;;;;;42.13;16.62;93880.97;5091014;28;20841;-59
2021/07/27 11:21:10;;;;;;;15.73;4.68;;;;;;;42.40;16.82;93872.47;5072532;28;20059;-59
2021/07/27 11:23:36;;;;;;;11.43;5.53;;;;;;;42.40;16.90;93874.66;5073059;28;20408;-60
2021/07/27 11:26:02;;;;;;;14.13;4.70;;;;;;;42.75;15.97;93866.69;5072310;28;20028;-59
2021/07/27 11:28:38;;;;;;;19.35;6.03;;;;;;;42.87;16.42;93863.53;5090671;28;20038;-58
2021/07/27 11:31:18;;;;;;;8.25;4.53;;;;;;;42.90;15.42;93862.75;5083302;28;20040;-58
2021/07/27 11:33:51;;;;;;;17.65;6.22;;;;;;;42.77;15.55;93858.66;5090643;28;20036;-58
2021/07/27 11:36:24;;;;;;;11.15;6.15;;;;;;;42.50;14.61;93857.75;5087435;28;20042;-58
2021/07/27 11:38:50;;;;;;;26.90;17.23;;;;;;;42.11;17.30;93866.50;5086101;28;20516;-58
2021/07/27 11:41:19;;;;;;;13.23;5.57;;;;;;;41.56;17.02;93860.91;5097208;28;20110;-59
2021/07/27 11:43:45;;;;;;;9.13;4.60;;;;;;;40.62;17.43;93856.50;5110719;28;20043;-59
2021/07/27 11:46:13;;;;;;;8.30;4.70;;;;;;;39.55;18.34;93854.69;5092537;28;20034;-58
2021/07/27 11:48:39;;;;;;;16.05;5.43;;;;;;;38.44;19.57;93855.41;5085728;28;20113;-58
2021/07/27 11:51:05;;;;;;;14.45;5.25;;;;;;;38.25;20.29;93854.06;5089789;28;20121;-58